Thompson, OH

1:23 PM EDT on April 01, 2015 (GMT -0400)
OHDOT | | Change Station
CLOSE
Current Station
Personal Weather Station
Location: Thompson, OH
Elevation: 1272 ft
Nearby Weather Stations

Elev 1272 ft 41.66 °N, 81.04 °W | Updated 23 minutes ago

Overcast
Overcast
46 °F
Feels Like 44 °F
N
4
Wind Variable Wind from NNE
Gusts 11.0 mph

Today
High -- | Low -- °F
--% Chance of Precip.
Yesterday
High -- | Low -- °F
Precip. -- in
7:07 AM 7:49 PM
Waxing Gibbous, 93% visible
Pressure 30.19 in
Visibility 10.0 miles
Clouds Few 3700 ft
Overcast 6000 ft
Windchill 44 °F
Dew Point 32 °F
Humidity 59%
Rainfall in
Snow Depth Not available.
UV 2 out of 12
Pollen .80 out of 12
Air Quality Not available.
Flu Activity Not available.
METAR KHZY 011653Z AUTO VRB03KT 10SM FEW037 OVC060 06/00 A3017 RMK AO2 SLP223 T00610000

More Conditions Fewer Conditions

Pressure 30.19 in
Visibility 10.0 miles
Clouds Few 3700 ft
Overcast 6000 ft
Windchill 44 °F
Dew Point 32 °F
Humidity 59%
Rainfall in
Snow Depth Not available.
UV 2 out of 12
Pollen .80 out of 12
Air Quality Not available.
Flu Activity Not available.
METAR KHZY 011653Z AUTO VRB03KT 10SM FEW037 OVC060 06/00 A3017 RMK AO2 SLP223 T00610000

More Conditions Fewer Conditions

10-Day Weather Forecast

Almanac

Astronomy

Apr. 01, 2015 Rise Set
Actual Time
Civil Twilight
Nautical Twilight
Astronomical Twilight
Moon
Length of Visible Light
Length of Day
Tomorrow will be .
, % of the Moon is Illuminated

Today's Extremes

State Highs State Lows

Community

WunderPhotos

Upload Photos

1,810,011 photos uploaded!

WunderBlogs® & News

Nearby

Air Quality

  Air Quality AQ Index Pollutant
Not available.

Snow Depth

Station Depth Elevation

Earthquake Activity

City Distance Mag. Time & Date
Minimum magnitude displayed is 2.5.

Coastal Water Temperatures

Place Temperature

Stations

Nearby Weather Stations

Station Location Temp. Windchill Dew Point Humidity Wind Precip. Elev Updated Type